Time;durP1;ratioP1;P1;durP2;ratioP2;P2;SDS_P1;SDS_P2;PMS_P1;PMS_P2;Temp;Humidity;BMP_temperature;BMP_pressure;BME280_temperature;BME280_humidity;BME280_pressure;Samples;Min_cycle;Max_cycle;Signal;HPM_P1;HPM_P2
2023/03/04 00:01:23;;;;;;;31.30;11.45;;;;;;;;;;5006788;28;20034;-47
2023/03/04 00:03:48;;;;;;;22.90;9.52;;;;;;;;;;5005833;28;20042;-46
2023/03/04 00:06:14;;;;;;;26.98;10.38;;;;;;;;;;5006436;28;20105;-48
2023/03/04 00:08:39;;;;;;;21.95;9.65;;;;;;;;;;5007463;28;20018;-45
2023/03/04 00:11:05;;;;;;;26.35;10.18;;;;;;;;;;5006330;28;20046;-49
2023/03/04 00:13:30;;;;;;;25.92;10.40;;;;;;;;;;5006779;28;20619;-46
2023/03/04 00:15:55;;;;;;;26.00;10.32;;;;;;;;;;5005481;28;20651;-47
2023/03/04 00:18:21;;;;;;;29.40;10.80;;;;;;;;;;5007270;28;20045;-48
2023/03/04 00:20:48;;;;;;;29.58;10.77;;;;;;;;;;5006698;28;20141;-47
2023/03/04 00:23:14;;;;;;;26.10;11.23;;;;;;;;;;5006311;28;20048;-47
2023/03/04 00:25:39;;;;;;;27.30;10.25;;;;;;;;;;5006042;28;20045;-46
2023/03/04 00:28:04;;;;;;;27.52;10.82;;;;;;;;;;5006717;28;20116;-45
2023/03/04 00:30:30;;;;;;;24.95;9.18;;;;;;;;;;5007007;28;20042;-51
2023/03/04 00:32:55;;;;;;;25.38;10.82;;;;;;;;;;5001686;28;20022;-46
2023/03/04 00:35:21;;;;;;;24.42;9.82;;;;;;;;;;5006454;28;20050;-48
2023/03/04 00:37:46;;;;;;;28.08;10.25;;;;;;;;;;5006735;28;20128;-50
2023/03/04 00:40:12;;;;;;;25.13;10.30;;;;;;;;;;5006387;28;20037;-46
2023/03/04 00:42:37;;;;;;;27.73;10.73;;;;;;;;;;5004942;28;20041;-48
2023/03/04 00:45:03;;;;;;;26.05;9.98;;;;;;;;;;5006589;28;20026;-47
2023/03/04 00:47:28;;;;;;;22.65;9.02;;;;;;;;;;5006003;28;20113;-46
2023/03/04 00:49:54;;;;;;;24.40;9.75;;;;;;;;;;5005821;28;20132;-47
2023/03/04 00:52:19;;;;;;;25.85;10.50;;;;;;;;;;5017377;28;20465;-46
2023/03/04 00:54:44;;;;;;;23.35;9.82;;;;;;;;;;5025225;28;20465;-48
2023/03/04 00:57:10;;;;;;;25.23;9.05;;;;;;;;;;5026686;28;20029;-46
2023/03/04 00:59:35;;;;;;;25.50;9.75;;;;;;;;;;5026275;28;20036;-50
2023/03/04 01:02:00;;;;;;;23.95;9.63;;;;;;;;;;5026107;28;20038;-48
2023/03/04 01:04:26;;;;;;;28.05;10.10;;;;;;;;;;5025356;28;20044;-48
2023/03/04 01:06:51;;;;;;;22.45;8.93;;;;;;;;;;5025884;28;20065;-46
2023/03/04 01:09:16;;;;;;;26.70;10.02;;;;;;;;;;5025672;28;20735;-46
2023/03/04 01:11:42;;;;;;;20.52;8.48;;;;;;;;;;5007915;28;20026;-48
2023/03/04 01:14:07;;;;;;;24.25;9.63;;;;;;;;;;5025695;28;20572;-47
2023/03/04 01:16:33;;;;;;;21.13;9.20;;;;;;;;;;5005682;28;20061;-46
2023/03/04 01:18:58;;;;;;;24.13;9.63;;;;;;;;;;5005740;28;20033;-46
2023/03/04 01:21:23;;;;;;;23.85;9.10;;;;;;;;;;5006804;28;20137;-49
2023/03/04 01:23:49;;;;;;;23.27;9.10;;;;;;;;;;5005808;28;20108;-50
2023/03/04 01:26:14;;;;;;;25.58;8.88;;;;;;;;;;5005161;28;20534;-48
2023/03/04 01:28:39;;;;;;;23.88;9.32;;;;;;;;;;5010419;28;20088;-47
2023/03/04 01:31:05;;;;;;;29.65;9.35;;;;;;;;;;5008929;28;20038;-46
2023/03/04 01:33:30;;;;;;;23.38;9.40;;;;;;;;;;5009914;28;20045;-47
2023/03/04 01:35:57;;;;;;;22.88;9.02;;;;;;;;;;5009368;28;20049;-48
2023/03/04 01:38:22;;;;;;;21.20;8.32;;;;;;;;;;5010191;28;20086;-47
2023/03/04 01:40:48;;;;;;;24.77;9.80;;;;;;;;;;5009129;28;20798;-46
2023/03/04 01:43:25;;;;;;;30.80;9.30;;;;;;;;;;5009511;28;20042;-46
2023/03/04 01:45:52;;;;;;;26.67;9.98;;;;;;;;;;5008835;28;20053;-48
2023/03/04 01:48:23;;;;;;;26.45;8.63;;;;;;;;;;5007931;28;20037;-46
2023/03/04 01:50:49;;;;;;;22.00;8.93;;;;;;;;;;5029879;28;20029;-46
2023/03/04 01:53:20;;;;;;;25.25;8.50;;;;;;;;;;5029213;28;20055;-46
2023/03/04 01:55:45;;;;;;;21.23;8.32;;;;;;;;;;5024764;28;20610;-51
2023/03/04 01:58:11;;;;;;;25.10;8.80;;;;;;;;;;5028653;28;20511;-45
2023/03/04 02:00:37;;;;;;;27.02;10.40;;;;;;;;;;5029073;28;20041;-48
2023/03/04 02:03:10;;;;;;;26.27;8.18;;;;;;;;;;5028268;28;20040;-46
2023/03/04 02:05:38;;;;;;;17.63;7.30;;;;;;;;;;5029575;28;20017;-46
2023/03/04 02:08:04;;;;;;;17.60;6.30;;;;;;;;;;5026291;28;20779;-48
2023/03/04 02:10:30;;;;;;;21.42;7.72;;;;;;;;;;5028306;28;20661;-47
2023/03/04 02:12:57;;;;;;;25.38;7.80;;;;;;;;;;5028835;28;20047;-46
2023/03/04 02:15:23;;;;;;;20.45;7.00;;;;;;;;;;5028291;28;20037;-46
2023/03/04 02:17:49;;;;;;;21.60;7.65;;;;;;;;;;5028278;28;20054;-46
2023/03/04 02:20:24;;;;;;;20.48;7.72;;;;;;;;;;5038775;28;20045;-46
2023/03/04 02:23:31;;;;;;;15.75;6.30;;;;;;;;;;5026825;28;20109;-47
2023/03/04 02:26:08;;;;;;;23.70;7.80;;;;;;;;;;5021850;28;20037;-47
2023/03/04 02:28:34;;;;;;;28.02;8.18;;;;;;;;;;5028649;28;20037;-48
2023/03/04 02:30:59;;;;;;;18.50;7.03;;;;;;;;;;5028670;28;20039;-45
2023/03/04 02:33:25;;;;;;;17.67;7.00;;;;;;;;;;5027730;28;20045;-48
2023/03/04 02:35:50;;;;;;;25.08;6.68;;;;;;;;;;5029251;28;20026;-48
2023/03/04 02:38:15;;;;;;;17.23;7.25;;;;;;;;;;5026162;28;20116;-46
2023/03/04 02:40:45;;;;;;;16.33;6.85;;;;;;;;;;5026762;28;20033;-48
2023/03/04 02:43:11;;;;;;;16.85;6.47;;;;;;;;;;5028743;28;20061;-50
2023/03/04 02:45:44;;;;;;;17.80;6.93;;;;;;;;;;5027446;28;20041;-45
2023/03/04 02:48:11;;;;;;;17.25;6.50;;;;;;;;;;5028517;28;20022;-45
2023/03/04 02:50:41;;;;;;;13.63;6.07;;;;;;;;;;5027326;28;20102;-47
2023/03/04 02:53:07;;;;;;;26.55;6.88;;;;;;;;;;5031857;28;20145;-46
2023/03/04 02:55:32;;;;;;;19.02;6.22;;;;;;;;;;5047176;28;20486;-47
2023/03/04 02:57:58;;;;;;;14.73;5.68;;;;;;;;;;5048167;28;20032;-46
2023/03/04 03:00:23;;;;;;;21.55;5.88;;;;;;;;;;5047773;28;20040;-46
2023/03/04 03:02:49;;;;;;;16.67;5.97;;;;;;;;;;5048091;28;20021;-46
2023/03/04 03:05:14;;;;;;;20.58;6.25;;;;;;;;;;5047793;28;20033;-44
2023/03/04 03:07:39;;;;;;;17.45;5.80;;;;;;;;;;5047691;28;20119;-47
2023/03/04 03:10:05;;;;;;;14.00;6.15;;;;;;;;;;5047689;28;20754;-47
2023/03/04 03:12:30;;;;;;;16.83;6.03;;;;;;;;;;5047517;28;20041;-47
2023/03/04 03:14:56;;;;;;;16.13;6.13;;;;;;;;;;5041942;28;20021;-48
2023/03/04 03:17:21;;;;;;;18.02;6.57;;;;;;;;;;5027789;28;20511;-47
2023/03/04 03:19:46;;;;;;;18.98;6.50;;;;;;;;;;5037704;28;20033;-46
2023/03/04 03:22:11;;;;;;;15.35;5.53;;;;;;;;;;5047201;28;20043;-47
2023/03/04 03:24:37;;;;;;;27.40;7.03;;;;;;;;;;5046702;28;20056;-47
2023/03/04 03:27:02;;;;;;;18.13;6.25;;;;;;;;;;5046785;28;20028;-46
2023/03/04 03:29:28;;;;;;;19.50;6.30;;;;;;;;;;5047871;28;20052;-48
2023/03/04 03:31:53;;;;;;;12.75;6.13;;;;;;;;;;5046898;28;20072;-47
2023/03/04 03:34:18;;;;;;;15.20;5.55;;;;;;;;;;5046727;28;20041;-47
2023/03/04 03:36:44;;;;;;;22.02;5.65;;;;;;;;;;5047708;28;20033;-46
2023/03/04 03:39:09;;;;;;;15.32;5.95;;;;;;;;;;5046757;28;20029;-47
2023/03/04 03:41:34;;;;;;;23.92;6.82;;;;;;;;;;5047052;28;20067;-46
2023/03/04 03:44:00;;;;;;;17.42;6.25;;;;;;;;;;5046470;28;20556;-47
2023/03/04 03:46:26;;;;;;;18.23;6.25;;;;;;;;;;5026111;28;20068;-48
2023/03/04 03:48:51;;;;;;;15.30;6.13;;;;;;;;;;5006717;28;20034;-45
2023/03/04 03:51:16;;;;;;;18.13;6.38;;;;;;;;;;5007148;28;20030;-49
2023/03/04 03:53:42;;;;;;;17.75;6.28;;;;;;;;;;5022920;28;20033;-45
2023/03/04 03:56:07;;;;;;;25.13;6.53;;;;;;;;;;5019571;28;20643;-46
2023/03/04 03:58:32;;;;;;;19.45;6.03;;;;;;;;;;5039648;28;20079;-47
2023/03/04 04:00:57;;;;;;;13.55;6.15;;;;;;;;;;5023554;28;20038;-47
2023/03/04 04:03:23;;;;;;;19.00;6.32;;;;;;;;;;5026891;28;20446;-46
2023/03/04 04:05:48;;;;;;;15.45;6.25;;;;;;;;;;5021859;28;20037;-48
2023/03/04 04:08:15;;;;;;;14.20;5.63;;;;;;;;;;5043566;28;20045;-49
2023/03/04 04:10:41;;;;;;;17.92;6.22;;;;;;;;;;5046762;28;20466;-48
2023/03/04 04:13:07;;;;;;;20.35;5.65;;;;;;;;;;5042833;28;20041;-47
2023/03/04 04:15:32;;;;;;;20.85;5.85;;;;;;;;;;5024235;28;20075;-46
2023/03/04 04:17:58;;;;;;;12.23;5.65;;;;;;;;;;5026020;28;20053;-49
2023/03/04 04:20:23;;;;;;;15.98;5.68;;;;;;;;;;5042687;28;20025;-47
2023/03/04 04:22:48;;;;;;;19.70;5.70;;;;;;;;;;5031660;28;20076;-48
2023/03/04 04:25:14;;;;;;;17.02;5.95;;;;;;;;;;5025669;28;20037;-49
2023/03/04 04:27:39;;;;;;;19.88;6.03;;;;;;;;;;5026400;28;20120;-47
2023/03/04 04:30:05;;;;;;;18.15;5.90;;;;;;;;;;5025217;28;20025;-48
2023/03/04 04:32:30;;;;;;;14.27;5.65;;;;;;;;;;5018915;28;20144;-47
2023/03/04 04:34:55;;;;;;;21.13;6.28;;;;;;;;;;5025345;28;20422;-49
2023/03/04 04:37:21;;;;;;;20.27;6.20;;;;;;;;;;5044949;28;20045;-47
2023/03/04 04:39:46;;;;;;;17.90;5.72;;;;;;;;;;5046076;28;20115;-46
2023/03/04 04:42:11;;;;;;;15.35;5.10;;;;;;;;;;5046273;28;20049;-48
2023/03/04 04:44:37;;;;;;;15.98;5.78;;;;;;;;;;5030106;28;20045;-47
2023/03/04 04:47:05;;;;;;;12.63;5.10;;;;;;;;;;5024771;28;20038;-47
2023/03/04 04:49:30;;;;;;;16.20;5.65;;;;;;;;;;5026063;28;20798;-47
2023/03/04 04:51:56;;;;;;;14.63;5.70;;;;;;;;;;5020939;28;20133;-46
2023/03/04 04:54:21;;;;;;;14.32;6.18;;;;;;;;;;5006161;28;20045;-49
2023/03/04 04:56:46;;;;;;;13.00;5.93;;;;;;;;;;5006356;28;20074;-46
2023/03/04 04:59:12;;;;;;;15.15;5.78;;;;;;;;;;5006511;28;20034;-46
2023/03/04 05:01:37;;;;;;;20.40;5.28;;;;;;;;;;5006690;28;20034;-48
2023/03/04 05:04:03;;;;;;;19.67;5.55;;;;;;;;;;5010348;28;20049;-48
2023/03/04 05:06:28;;;;;;;19.83;5.47;;;;;;;;;;5010468;28;20520;-47
2023/03/04 05:08:54;;;;;;;16.25;5.20;;;;;;;;;;5009938;28;20029;-47
2023/03/04 05:11:19;;;;;;;13.05;4.95;;;;;;;;;;5010068;28;20034;-46
2023/03/04 05:13:46;;;;;;;11.43;4.35;;;;;;;;;;5013190;28;20037;-47
2023/03/04 05:16:12;;;;;;;13.27;4.90;;;;;;;;;;5038935;28;20091;-45
2023/03/04 05:18:37;;;;;;;10.27;4.07;;;;;;;;;;5048881;28;20033;-46
2023/03/04 05:21:04;;;;;;;14.43;4.72;;;;;;;;;;5050109;28;20025;-47
2023/03/04 05:23:33;;;;;;;10.38;4.15;;;;;;;;;;5050102;28;20784;-46
2023/03/04 05:25:59;;;;;;;15.43;5.13;;;;;;;;;;5048778;28;20059;-47
2023/03/04 05:28:24;;;;;;;20.63;4.57;;;;;;;;;;5049234;28;20037;-49
2023/03/04 05:30:49;;;;;;;12.05;4.10;;;;;;;;;;5049411;28;20042;-48
2023/03/04 05:33:16;;;;;;;11.05;4.75;;;;;;;;;;5049368;28;20040;-49
2023/03/04 05:35:42;;;;;;;18.80;3.25;;;;;;;;;;5050042;28;20025;-48
2023/03/04 05:38:10;;;;;;;15.77;3.70;;;;;;;;;;5048489;28;20033;-49
2023/03/04 05:40:36;;;;;;;17.80;4.43;;;;;;;;;;5049723;28;20041;-47
2023/03/04 05:43:01;;;;;;;7.43;3.40;;;;;;;;;;5048759;28;20037;-47
2023/03/04 05:45:27;;;;;;;15.30;3.83;;;;;;;;;;5048184;28;20048;-46
2023/03/04 05:47:53;;;;;;;8.70;3.83;;;;;;;;;;5050030;28;20040;-46
2023/03/04 05:50:19;;;;;;;12.15;4.38;;;;;;;;;;5048993;28;20045;-46
2023/03/04 05:52:44;;;;;;;15.05;3.97;;;;;;;;;;5048586;28;20059;-48
2023/03/04 05:55:10;;;;;;;14.05;4.45;;;;;;;;;;5049034;28;20549;-47
2023/03/04 05:57:35;;;;;;;12.40;4.57;;;;;;;;;;5048296;28;20048;-47
2023/03/04 06:00:04;;;;;;;13.60;4.32;;;;;;;;;;5048912;28;20028;-47
2023/03/04 06:02:29;;;;;;;14.13;4.10;;;;;;;;;;5049417;28;20171;-46
2023/03/04 06:04:55;;;;;;;10.20;3.70;;;;;;;;;;5048114;28;20037;-47
2023/03/04 06:07:20;;;;;;;11.50;3.67;;;;;;;;;;5049234;28;20051;-49
2023/03/04 06:09:45;;;;;;;14.55;4.05;;;;;;;;;;5048209;28;20041;-48
2023/03/04 06:12:12;;;;;;;9.45;3.08;;;;;;;;;;5047368;28;20061;-47
2023/03/04 06:14:37;;;;;;;15.40;3.97;;;;;;;;;;5046267;28;20038;-47
2023/03/04 06:17:02;;;;;;;11.45;3.95;;;;;;;;;;5028542;28;20056;-48
2023/03/04 06:19:28;;;;;;;9.55;3.25;;;;;;;;;;5034470;28;20045;-48
2023/03/04 06:21:53;;;;;;;7.60;2.80;;;;;;;;;;5046525;28;20529;-46
2023/03/04 06:24:19;;;;;;;14.70;3.53;;;;;;;;;;5048116;28;20529;-49
2023/03/04 06:26:44;;;;;;;11.38;3.70;;;;;;;;;;5047082;28;20035;-46
2023/03/04 06:29:09;;;;;;;9.27;3.35;;;;;;;;;;5047789;28;20063;-47
2023/03/04 06:31:35;;;;;;;9.60;3.63;;;;;;;;;;5048776;28;20049;-47
2023/03/04 06:34:00;;;;;;;13.63;4.00;;;;;;;;;;5048213;28;20162;-47
2023/03/04 06:36:25;;;;;;;12.98;3.08;;;;;;;;;;5038580;28;20112;-47
2023/03/04 06:38:50;;;;;;;10.27;2.88;;;;;;;;;;5028908;28;20025;-47
2023/03/04 06:41:16;;;;;;;7.90;2.45;;;;;;;;;;5022789;28;20034;-46
2023/03/04 06:43:41;;;;;;;13.80;3.10;;;;;;;;;;5027418;28;20030;-47
2023/03/04 06:46:07;;;;;;;7.97;2.90;;;;;;;;;;5024139;28;20453;-47
2023/03/04 06:48:33;;;;;;;10.27;2.72;;;;;;;;;;5026332;28;20041;-47
2023/03/04 06:51:04;;;;;;;8.05;2.92;;;;;;;;;;5026051;28;20025;-46
2023/03/04 06:53:29;;;;;;;7.78;3.83;;;;;;;;;;5028027;28;20502;-45
2023/03/04 06:55:54;;;;;;;9.60;2.65;;;;;;;;;;5027789;28;20057;-46
2023/03/04 06:58:20;;;;;;;7.60;2.85;;;;;;;;;;5025707;28;20041;-47
2023/03/04 07:00:45;;;;;;;9.02;3.08;;;;;;;;;;5025387;28;20523;-46
2023/03/04 07:03:11;;;;;;;10.15;2.63;;;;;;;;;;5026491;28;20041;-49
2023/03/04 07:05:37;;;;;;;12.18;3.35;;;;;;;;;;5028553;28;20033;-47
2023/03/04 07:08:02;;;;;;;16.10;3.40;;;;;;;;;;5026203;28;20037;-47
2023/03/04 07:10:27;;;;;;;10.23;3.30;;;;;;;;;;5026692;28;20041;-48
2023/03/04 07:12:53;;;;;;;13.55;3.65;;;;;;;;;;5026543;28;20033;-45
2023/03/04 07:15:18;;;;;;;21.05;3.58;;;;;;;;;;5016449;28;20673;-48
2023/03/04 07:17:43;;;;;;;14.85;3.35;;;;;;;;;;5008960;28;20129;-45
2023/03/04 07:20:09;;;;;;;12.98;4.00;;;;;;;;;;5028483;28;20029;-49
2023/03/04 07:22:35;;;;;;;8.68;2.90;;;;;;;;;;5026176;28;20050;-47
2023/03/04 07:25:00;;;;;;;15.45;2.85;;;;;;;;;;5023748;28;20037;-49
2023/03/04 07:27:25;;;;;;;13.63;3.70;;;;;;;;;;5026209;28;20422;-48
2023/03/04 07:29:51;;;;;;;19.55;3.35;;;;;;;;;;5023768;28;20057;-46
2023/03/04 07:32:16;;;;;;;13.70;3.25;;;;;;;;;;5025268;28;20577;-46
2023/03/04 07:34:41;;;;;;;8.13;3.50;;;;;;;;;;5025975;28;20049;-49
2023/03/04 07:37:07;;;;;;;11.45;4.18;;;;;;;;;;5024805;28;20708;-46
2023/03/04 07:39:32;;;;;;;12.13;3.70;;;;;;;;;;5019732;28;20037;-46
2023/03/04 07:41:57;;;;;;;10.88;3.80;;;;;;;;;;5025427;28;20462;-46
2023/03/04 07:44:23;;;;;;;12.98;4.25;;;;;;;;;;5026392;28;20017;-47
2023/03/04 07:46:48;;;;;;;11.55;3.50;;;;;;;;;;5024212;28;20041;-48
2023/03/04 07:49:13;;;;;;;11.93;3.20;;;;;;;;;;5022360;28;20040;-46
2023/03/04 07:51:39;;;;;;;19.10;8.80;;;;;;;;;;5030814;28;20048;-46
2023/03/04 07:54:05;;;;;;;9.07;3.47;;;;;;;;;;5021393;28;20988;-45
2023/03/04 07:56:32;;;;;;;9.15;3.35;;;;;;;;;;5027671;28;20061;-49
2023/03/04 07:58:58;;;;;;;14.98;4.07;;;;;;;;;;5023285;28;20431;-47
2023/03/04 08:01:26;;;;;;;20.63;3.40;;;;;;;;;;5025915;28;20088;-47
2023/03/04 08:03:52;;;;;;;13.80;3.22;;;;;;;;;;5023775;28;20060;-47
2023/03/04 08:06:19;;;;;;;10.82;2.88;;;;;;;;;;5018560;28;20525;-47
2023/03/04 08:08:45;;;;;;;12.18;2.53;;;;;;;;;;5020915;28;20742;-47
2023/03/04 08:11:16;;;;;;;6.35;2.05;;;;;;;;;;5021151;28;20600;-48
2023/03/04 08:13:42;;;;;;;8.13;2.65;;;;;;;;;;5019328;28;20339;-49
2023/03/04 08:16:11;;;;;;;9.02;3.10;;;;;;;;;;5016990;28;20512;-47
2023/03/04 08:18:38;;;;;;;13.38;3.35;;;;;;;;;;5021981;28;20037;-48
2023/03/04 08:21:07;;;;;;;7.93;2.33;;;;;;;;;;5021803;28;20112;-47
2023/03/04 08:23:33;;;;;;;6.07;2.03;;;;;;;;;;5022283;28;20048;-50
2023/03/04 08:25:58;;;;;;;13.65;3.80;;;;;;;;;;5020417;28;20080;-49
2023/03/04 08:28:23;;;;;;;6.13;2.88;;;;;;;;;;5023624;28;20034;-48
2023/03/04 08:30:53;;;;;;;7.72;2.78;;;;;;;;;;5025685;28;20049;-46
2023/03/04 08:33:18;;;;;;;7.38;2.53;;;;;;;;;;5022656;28;20037;-48
2023/03/04 08:35:43;;;;;;;15.02;2.88;;;;;;;;;;5018573;28;20705;-46
2023/03/04 08:38:09;;;;;;;13.00;3.75;;;;;;;;;;5022374;28;20418;-46
2023/03/04 08:40:34;;;;;;;8.55;3.03;;;;;;;;;;5019865;28;20048;-47
2023/03/04 08:42:59;;;;;;;9.93;3.08;;;;;;;;;;5024776;28;20120;-46
2023/03/04 08:45:25;;;;;;;8.30;2.85;;;;;;;;;;5028655;28;20037;-46
2023/03/04 08:47:50;;;;;;;16.10;3.38;;;;;;;;;;5021775;28;20399;-47
2023/03/04 08:50:16;;;;;;;10.85;3.33;;;;;;;;;;5021026;28;20041;-47
2023/03/04 08:52:41;;;;;;;10.82;2.70;;;;;;;;;;5020431;28;20168;-48
2023/03/04 08:55:07;;;;;;;6.15;2.60;;;;;;;;;;5013159;28;20064;-48
2023/03/04 08:57:32;;;;;;;7.10;2.65;;;;;;;;;;5013857;28;20048;-46
2023/03/04 08:59:57;;;;;;;10.98;2.83;;;;;;;;;;5014637;28;20060;-49
2023/03/04 09:02:23;;;;;;;10.20;3.38;;;;;;;;;;5019410;28;20530;-47
2023/03/04 09:04:48;;;;;;;12.07;2.88;;;;;;;;;;5013570;28;20588;-45
2023/03/04 09:07:13;;;;;;;6.20;2.90;;;;;;;;;;5019700;28;20049;-46
2023/03/04 09:09:39;;;;;;;7.35;2.40;;;;;;;;;;5022297;28;20125;-48
2023/03/04 09:12:05;;;;;;;9.10;2.95;;;;;;;;;;5017985;28;20053;-49
2023/03/04 09:14:32;;;;;;;7.85;3.03;;;;;;;;;;5022129;28;20101;-47
2023/03/04 09:16:57;;;;;;;10.00;3.10;;;;;;;;;;5018546;28;20459;-50
2023/03/04 09:19:23;;;;;;;6.45;2.28;;;;;;;;;;5022072;28;20549;-45
2023/03/04 09:21:48;;;;;;;13.13;3.08;;;;;;;;;;5022639;28;20034;-47
2023/03/04 09:24:13;;;;;;;7.75;3.03;;;;;;;;;;5018596;28;20035;-47
2023/03/04 09:26:39;;;;;;;9.48;3.20;;;;;;;;;;5017369;28;20487;-48
2023/03/04 09:29:05;;;;;;;5.63;2.47;;;;;;;;;;5018668;28;20096;-46
2023/03/04 09:31:30;;;;;;;8.85;2.50;;;;;;;;;;5017049;28;20045;-46
2023/03/04 09:33:57;;;;;;;8.43;2.70;;;;;;;;;;5032188;28;20037;-46
2023/03/04 09:36:23;;;;;;;13.05;2.45;;;;;;;;;;5042992;28;20071;-47
2023/03/04 09:38:48;;;;;;;13.27;2.72;;;;;;;;;;5018163;28;20022;-47
2023/03/04 09:41:17;;;;;;;5.45;2.30;;;;;;;;;;5015197;28;20836;-49
2023/03/04 09:43:43;;;;;;;6.40;2.22;;;;;;;;;;5018354;28;20128;-49
2023/03/04 09:46:13;;;;;;;7.00;2.63;;;;;;;;;;5020703;28;20038;-47
2023/03/04 09:48:44;;;;;;;8.35;1.80;;;;;;;;;;5007985;28;20046;-47
2023/03/04 09:51:42;;;;;;;4.80;1.33;;;;;;;;;;5008741;28;20179;-49
2023/03/04 09:54:20;;;;;;;9.40;1.73;;;;;;;;;;5008735;28;20022;-46
2023/03/04 09:56:45;;;;;;;3.45;1.52;;;;;;;;;;5030752;28;20521;-48
2023/03/04 09:59:15;;;;;;;8.70;1.80;;;;;;;;;;5047529;28;20067;-47
2023/03/04 10:01:49;;;;;;;5.90;1.98;;;;;;;;;;5048197;28;20048;-46
2023/03/04 10:04:27;;;;;;;5.50;2.20;;;;;;;;;;5037070;28;20037;-46
2023/03/04 10:06:53;;;;;;;9.40;2.30;;;;;;;;;;5030378;28;20727;-50
2023/03/04 10:09:25;;;;;;;5.88;2.30;;;;;;;;;;5026457;28;20034;-47
2023/03/04 10:12:12;;;;;;;6.32;1.90;;;;;;;;;;5028323;28;20049;-47
2023/03/04 10:14:45;;;;;;;12.25;2.50;;;;;;;;;;5025209;28;20446;-46
2023/03/04 10:17:14;;;;;;;;;;;;;;;;;;5008110;28;20207;-47
2023/03/04 10:19:46;;;;;;;3.70;1.63;;;;;;;;;;5028966;28;19916;-46
2023/03/04 10:22:41;;;;;;;5.25;2.22;;;;;;;;;;5046875;28;20039;-45
2023/03/04 10:25:27;;;;;;;4.60;1.38;;;;;;;;;;5039580;28;20044;-46
2023/03/04 10:27:56;;;;;;;6.07;1.95;;;;;;;;;;5024237;28;20049;-46
2023/03/04 10:30:45;;;;;;;3.70;1.90;;;;;;;;;;5025409;28;20037;-47
2023/03/04 10:33:16;;;;;;;13.95;1.77;;;;;;;;;;4993560;28;20056;-47
2023/03/04 10:35:54;;;;;;;4.85;1.95;;;;;;;;;;5021725;28;20045;-45
2023/03/04 10:38:21;;;;;;;5.20;2.20;;;;;;;;;;5018294;28;20092;-47
2023/03/04 10:40:46;;;;;;;4.30;1.70;;;;;;;;;;5024668;28;20045;-46
2023/03/04 10:43:21;;;;;;;6.40;2.40;;;;;;;;;;5024489;28;20038;-46
2023/03/04 10:45:47;;;;;;;5.32;1.73;;;;;;;;;;5021231;28;20037;-45
2023/03/04 10:48:40;;;;;;;5.47;1.80;;;;;;;;;;5024847;28;20079;-45
2023/03/04 10:51:18;;;;;;;6.83;1.90;;;;;;;;;;5017455;28;20087;-46
2023/03/04 10:53:46;;;;;;;3.10;1.33;;;;;;;;;;5027076;28;20049;-45
2023/03/04 10:56:36;;;;;;;7.22;2.15;;;;;;;;;;5019583;28;20044;-48
2023/03/04 10:59:33;;;;;;;6.00;1.83;;;;;;;;;;5024110;28;20041;-49
2023/03/04 11:02:00;;;;;;;4.45;2.33;;;;;;;;;;5020365;28;20072;-46
2023/03/04 11:04:32;;;;;;;3.22;1.60;;;;;;;;;;5019603;28;20044;-48
2023/03/04 11:06:57;;;;;;;11.35;2.28;;;;;;;;;;5019328;28;20038;-49
2023/03/04 11:09:25;;;;;;;4.18;1.73;;;;;;;;;;5022395;28;20041;-48
2023/03/04 11:11:54;;;;;;;3.03;1.67;;;;;;;;;;5020240;28;20045;-47
2023/03/04 11:14:29;;;;;;;6.18;2.47;;;;;;;;;;5023391;28;20045;-46
2023/03/04 11:17:00;;;;;;;5.88;2.30;;;;;;;;;;5021584;28;20058;-46
2023/03/04 11:19:38;;;;;;;7.25;2.40;;;;;;;;;;5019145;28;20581;-48
2023/03/04 11:22:04;;;;;;;4.28;2.30;;;;;;;;;;5024381;28;20030;-46
2023/03/04 11:24:33;;;;;;;5.63;2.00;;;;;;;;;;5005703;28;20044;-47
2023/03/04 11:27:13;;;;;;;4.97;1.90;;;;;;;;;;5019538;28;20029;-50
2023/03/04 11:29:47;;;;;;;7.35;2.63;;;;;;;;;;5023093;28;20047;-47
2023/03/04 11:32:19;;;;;;;5.43;2.20;;;;;;;;;;5025619;28;20075;-47
2023/03/04 11:34:57;;;;;;;7.60;2.47;;;;;;;;;;5025838;28;20034;-45
2023/03/04 11:37:30;;;;;;;6.60;2.20;;;;;;;;;;5024526;28;20040;-47
2023/03/04 11:40:03;;;;;;;7.15;2.60;;;;;;;;;;5022544;28;20052;-46
2023/03/04 11:42:41;;;;;;;7.07;2.78;;;;;;;;;;5026264;28;20111;-46
2023/03/04 11:45:15;;;;;;;9.50;2.67;;;;;;;;;;5012445;28;20036;-47
2023/03/04 11:47:59;;;;;;;8.98;2.08;;;;;;;;;;5016844;28;20068;-49
2023/03/04 11:50:32;;;;;;;3.92;1.73;;;;;;;;;;5014241;28;20175;-46
2023/03/04 11:53:13;;;;;;;14.13;2.72;;;;;;;;;;5012673;28;20038;-47
2023/03/04 11:55:46;;;;;;;4.90;1.50;;;;;;;;;;5020426;28;20229;-45
2023/03/04 11:58:14;;;;;;;6.10;2.50;;;;;;;;;;5022982;28;20045;-46
2023/03/04 12:00:59;;;;;;;7.22;2.38;;;;;;;;;;5023815;28;20383;-49
2023/03/04 12:03:50;;;;;;;4.38;1.92;;;;;;;;;;5025566;28;20534;-48
2023/03/04 12:06:39;;;;;;;7.45;2.25;;;;;;;;;;5020907;28;20029;-47
2023/03/04 12:09:32;;;;;;;4.53;2.15;;;;;;;;;;5021001;28;20026;-46
2023/03/04 12:12:09;;;;;;;4.70;1.52;;;;;;;;;;5014203;28;20099;-46
2023/03/04 12:14:51;;;;;;;6.13;2.08;;;;;;;;;;5022806;28;20029;-47
2023/03/04 12:17:32;;;;;;;4.95;1.88;;;;;;;;;;5019125;28;20060;-46
2023/03/04 12:20:15;;;;;;;8.60;2.20;;;;;;;;;;5021404;28;20048;-47
2023/03/04 12:22:50;;;;;;;10.10;2.78;;;;;;;;;;5021862;28;20055;-46
2023/03/04 12:25:31;;;;;;;4.15;2.10;;;;;;;;;;5015558;28;20116;-46
2023/03/04 12:28:15;;;;;;;2.63;1.38;;;;;;;;;;5021316;28;20125;-47
2023/03/04 12:30:58;;;;;;;7.20;3.10;;;;;;;;;;5015553;28;20037;-49
2023/03/04 12:33:29;;;;;;;4.57;2.30;;;;;;;;;;5018037;28;20064;-45
2023/03/04 12:36:26;;;;;;;4.68;2.03;;;;;;;;;;5014971;28;20411;-47
2023/03/04 12:39:02;;;;;;;6.55;2.00;;;;;;;;;;5015278;28;20048;-46
2023/03/04 12:41:30;;;;;;;4.57;2.47;;;;;;;;;;5018272;28;20052;-47
2023/03/04 12:43:56;;;;;;;4.35;2.03;;;;;;;;;;5017675;28;20037;-47
2023/03/04 12:46:40;;;;;;;4.20;1.88;;;;;;;;;;5021728;28;20083;-52
2023/03/04 12:49:23;;;;;;;5.78;2.25;;;;;;;;;;5014751;28;20036;-48
2023/03/04 12:52:10;;;;;;;3.90;1.98;;;;;;;;;;5015762;28;20553;-46
2023/03/04 12:54:43;;;;;;;5.20;2.60;;;;;;;;;;5018847;28;20041;-47
2023/03/04 12:57:20;;;;;;;8.48;2.65;;;;;;;;;;5018903;28;20060;-48
2023/03/04 12:59:57;;;;;;;10.45;2.22;;;;;;;;;;5017334;28;20025;-48
2023/03/04 13:02:28;;;;;;;7.05;2.28;;;;;;;;;;5014456;28;20618;-46
2023/03/04 13:05:24;;;;;;;9.57;2.47;;;;;;;;;;5021812;28;20033;-48
2023/03/04 13:08:01;;;;;;;5.35;2.03;;;;;;;;;;5024673;28;20034;-48
2023/03/04 13:10:26;;;;;;;6.97;2.30;;;;;;;;;;5023089;28;20088;-48
2023/03/04 13:12:55;;;;;;;5.28;2.08;;;;;;;;;;5022312;28;20037;-48
2023/03/04 13:15:20;;;;;;;4.50;2.53;;;;;;;;;;5017390;28;20037;-48
2023/03/04 13:17:54;;;;;;;7.10;2.17;;;;;;;;;;5022651;28;20102;-45
2023/03/04 13:20:45;;;;;;;4.10;2.28;;;;;;;;;;5041639;28;20041;-48
2023/03/04 13:23:13;;;;;;;6.00;2.20;;;;;;;;;;5041409;28;20045;-47
2023/03/04 13:26:07;;;;;;;4.60;2.00;;;;;;;;;;5046793;28;20029;-45
2023/03/04 13:28:36;;;;;;;11.85;2.22;;;;;;;;;;5047225;28;20041;-46
2023/03/04 13:31:25;;;;;;;5.85;2.17;;;;;;;;;;5047666;28;20051;-46
2023/03/04 13:33:53;;;;;;;8.57;3.10;;;;;;;;;;5020429;28;20588;-47
2023/03/04 13:36:28;;;;;;;9.60;2.72;;;;;;;;;;5024470;28;20076;-46
2023/03/04 13:39:03;;;;;;;8.45;3.30;;;;;;;;;;5027828;28;20033;-45
2023/03/04 13:41:49;;;;;;;6.95;3.47;;;;;;;;;;5022109;28;20041;-46
2023/03/04 13:44:31;;;;;;;8.95;3.20;;;;;;;;;;5027379;28;20044;-46
2023/03/04 13:46:56;;;;;;;7.00;3.40;;;;;;;;;;5023322;28;20036;-46
2023/03/04 13:49:23;;;;;;;7.00;2.95;;;;;;;;;;5017687;28;20074;-46
2023/03/04 13:51:49;;;;;;;5.88;3.25;;;;;;;;;;5022699;28;20071;-46
2023/03/04 13:54:30;;;;;;;6.85;2.97;;;;;;;;;;5025135;28;20025;-48
2023/03/04 13:57:20;;;;;;;9.57;3.08;;;;;;;;;;5025996;28;20044;-46
2023/03/04 13:59:48;;;;;;;9.90;2.97;;;;;;;;;;5025902;28;20446;-47
2023/03/04 14:02:21;;;;;;;7.60;3.28;;;;;;;;;;5026855;28;20065;-46
2023/03/04 14:04:58;;;;;;;6.57;3.15;;;;;;;;;;5026164;28;20076;-46
2023/03/04 14:07:23;;;;;;;12.38;3.10;;;;;;;;;;5023844;28;20092;-47
2023/03/04 14:09:53;;;;;;;5.90;3.15;;;;;;;;;;5026636;28;20044;-47
2023/03/04 14:12:18;;;;;;;7.82;3.00;;;;;;;;;;5027045;28;20060;-50
2023/03/04 14:14:49;;;;;;;8.18;3.20;;;;;;;;;;5027138;28;20485;-47
2023/03/04 14:17:19;;;;;;;11.65;4.28;;;;;;;;;;5024283;28;20045;-50
2023/03/04 14:19:46;;;;;;;9.10;4.15;;;;;;;;;;5037240;28;20029;-46
2023/03/04 14:22:25;;;;;;;11.18;3.80;;;;;;;;;;5045500;28;20122;-45
2023/03/04 14:25:13;;;;;;;8.00;4.22;;;;;;;;;;5045777;28;20043;-45
2023/03/04 14:27:38;;;;;;;11.32;4.10;;;;;;;;;;5046295;28;20037;-50
2023/03/04 14:30:07;;;;;;;10.13;4.55;;;;;;;;;;5046432;28;20036;-47
2023/03/04 14:32:33;;;;;;;10.20;5.43;;;;;;;;;;5046513;28;20503;-47
2023/03/04 14:35:05;;;;;;;7.43;4.75;;;;;;;;;;5046429;28;20102;-45
2023/03/04 14:37:45;;;;;;;8.65;4.30;;;;;;;;;;5046661;28;20124;-46
2023/03/04 14:40:21;;;;;;;11.52;4.18;;;;;;;;;;5046005;28;20510;-45
2023/03/04 14:42:47;;;;;;;6.38;3.13;;;;;;;;;;5024411;28;20056;-50
2023/03/04 14:45:15;;;;;;;8.02;4.28;;;;;;;;;;5011923;28;20022;-48
2023/03/04 14:47:44;;;;;;;7.78;3.20;;;;;;;;;;5006261;28;20026;-47